Main page
METAR-TAF:

METAR-TAF

Airports :

Zeltweg, Austria

Zeltweg Air Base

latitude: 47-12N, longitude: 014-45E, elevation: 677 m

Current weather observation

The report was made 1 hour and 2 minutes ago, at 07:50 UTC
Wind 2 kt from the Southeast
Temperature 13°C
Humidity 88%
Pressure 1013 hPa

METAR: LOXZ 270750Z 14002KT 20KM FEW006ST BKN060SC 13/11 Q1013

Time: 10:52 (08:52 UTC)


TAF: missing

Weather observations and forecasts of more than 4000 airports (METAR and TAF reports).

The available stations are represented by yellow and red dots on the map.

Hover mouse over dot to see the name of the station.

Then click to see weather observations and forecasts.

To change the map : click on the green buttons with a black cross to zoom in, on the green button with a dash to zoom out, or on the green arrows for adjacent maps.


METAR-TAF: